Time;durP1;ratioP1;P1;durP2;ratioP2;P2;SDS_P1;SDS_P2;PMS_P1;PMS_P2;Temp;Humidity;BMP_temperature;BMP_pressure;BME280_temperature;BME280_humidity;BME280_pressure;Samples;Min_cycle;Max_cycle;Signal;HPM_P1;HPM_P2
2023/05/13 00:00:08;;;;;;;5.75;5.43;;;10.50;99.90;;;11.20;100.00;97890.53;5105887;28;20373;-64
2023/05/13 00:02:42;;;;;;;6.15;5.75;;;10.50;99.90;;;11.18;100.00;97882.75;5119709;28;20918;-65
2023/05/13 00:05:16;;;;;;;5.80;5.40;;;10.50;99.90;;;11.23;100.00;97883.91;5114112;28;20204;-64
2023/05/13 00:07:49;;;;;;;6.38;5.85;;;10.50;99.90;;;11.23;100.00;97883.03;5110891;28;20657;-63
2023/05/13 00:10:22;;;;;;;5.90;5.50;;;10.40;99.90;;;11.21;100.00;97879.50;5108997;28;20224;-64
2023/05/13 00:12:55;;;;;;;6.07;5.57;;;10.40;99.90;;;11.18;100.00;97880.22;5112622;28;20212;-64
2023/05/13 00:15:28;;;;;;;5.97;5.50;;;10.40;99.90;;;11.11;100.00;97878.13;5109534;28;20311;-64
2023/05/13 00:18:03;;;;;;;6.85;5.65;;;10.40;99.90;;;11.07;100.00;97885.53;5117248;28;20660;-64
2023/05/13 00:20:36;;;;;;;6.20;5.70;;;10.30;99.90;;;11.08;100.00;97882.19;5108169;28;20237;-63
2023/05/13 00:23:10;;;;;;;6.40;5.80;;;10.30;99.90;;;11.04;100.00;97878.56;5107433;28;20347;-64
2023/05/13 00:25:43;;;;;;;6.00;5.50;;;10.30;99.90;;;11.07;100.00;97881.28;5103175;28;20214;-63
2023/05/13 00:28:16;;;;;;;6.05;5.55;;;10.30;99.90;;;10.99;100.00;97878.34;5113454;28;20211;-64
2023/05/13 00:30:49;;;;;;;5.88;5.47;;;10.30;99.90;;;10.99;100.00;97887.69;5116541;28;20589;-64
2023/05/13 00:33:24;;;;;;;6.40;5.90;;;10.30;99.90;;;10.94;100.00;97889.09;5108647;28;20213;-63
2023/05/13 00:35:57;;;;;;;6.70;6.20;;;10.20;99.90;;;10.95;100.00;97890.84;5110641;28;21162;-64
2023/05/13 00:38:30;;;;;;;6.57;5.97;;;10.20;99.90;;;10.94;100.00;97894.22;5111480;28;20215;-65
2023/05/13 00:41:05;;;;;;;6.93;6.15;;;10.20;99.90;;;10.93;100.00;97882.19;5108997;28;20232;-64
2023/05/13 00:43:38;;;;;;;6.60;6.10;;;10.20;99.90;;;10.92;100.00;97886.44;5117162;28;20675;-64
2023/05/13 00:46:11;;;;;;;6.05;5.65;;;10.20;99.90;;;10.89;100.00;97880.28;5116017;28;20509;-63
2023/05/13 00:48:45;;;;;;;6.65;6.05;;;10.20;99.90;;;10.86;100.00;97883.53;5112151;28;20723;-64
2023/05/13 00:51:18;;;;;;;6.43;5.88;;;10.20;99.90;;;10.73;100.00;97879.44;5112517;28;20220;-64
2023/05/13 00:53:52;;;;;;;5.82;5.43;;;10.00;99.90;;;10.60;100.00;97864.19;5108402;28;20211;-64
2023/05/13 00:56:26;;;;;;;5.57;5.15;;;9.90;99.90;;;10.65;100.00;97867.00;5109503;29;20566;-64
2023/05/13 00:58:59;;;;;;;5.78;5.38;;;9.90;99.90;;;10.45;100.00;97863.31;5112086;28;20568;-64
2023/05/13 01:01:41;;;;;;;5.90;5.50;;;9.80;99.90;;;10.43;100.00;97863.22;5113543;28;20205;-64
2023/05/13 01:04:27;;;;;;;6.45;5.78;;;9.80;99.90;;;10.33;100.00;97869.47;5119496;28;20209;-64
2023/05/13 01:07:14;;;;;;;5.78;5.38;;;9.70;99.90;;;10.24;100.00;97870.56;5112213;28;20205;-64
2023/05/13 01:09:57;;;;;;;5.28;4.90;;;9.60;99.90;;;10.27;100.00;97876.78;5107947;28;20627;-63
2023/05/13 01:12:34;;;;;;;4.95;4.57;;;9.60;99.90;;;10.31;100.00;97878.72;5112408;29;20197;-65
2023/05/13 01:15:10;;;;;;;5.28;4.88;;;9.60;99.90;;;10.33;100.00;97884.81;5118362;28;20220;-64
2023/05/13 01:17:50;;;;;;;5.32;5.00;;;9.60;99.90;;;10.41;100.00;97882.69;5116626;29;20208;-64
2023/05/13 01:20:27;;;;;;;5.60;5.07;;;9.70;99.90;;;10.40;100.00;97882.59;5118524;28;20255;-64
2023/05/13 01:23:02;;;;;;;6.05;5.45;;;9.70;99.90;;;10.39;100.00;97879.19;5114454;28;20222;-63
2023/05/13 01:25:36;;;;;;;5.55;5.07;;;9.70;99.90;;;10.37;100.00;97878.19;5114493;28;20209;-64
2023/05/13 01:28:09;;;;;;;4.75;4.35;;;9.70;99.90;;;10.43;100.00;97887.88;5113918;28;20665;-64
2023/05/13 01:30:42;;;;;;;5.78;5.22;;;9.70;99.90;;;10.42;100.00;97888.69;5112894;28;20222;-64
2023/05/13 01:33:16;;;;;;;5.97;5.40;;;9.70;99.90;;;10.40;100.00;97885.16;5113591;28;20667;-64
2023/05/13 01:35:50;;;;;;;5.15;4.75;;;9.70;99.90;;;10.41;100.00;97885.22;5115005;28;20209;-63
2023/05/13 01:38:26;;;;;;;5.32;4.93;;;9.70;99.90;;;10.41;100.00;97892.91;5113090;28;20669;-64
2023/05/13 01:41:00;;;;;;;5.50;5.00;;;9.80;99.90;;;10.42;100.00;97887.00;5113943;28;20237;-64
2023/05/13 01:43:33;;;;;;;6.15;5.57;;;9.80;99.90;;;10.46;100.00;97888.06;5110714;28;20217;-64
2023/05/13 01:46:12;;;;;;;5.72;5.32;;;9.80;99.90;;;10.51;100.00;97887.53;5108627;28;20209;-64
2023/05/13 01:48:45;;;;;;;5.70;5.30;;;9.80;99.90;;;10.65;100.00;97884.91;5118130;28;20197;-63
2023/05/13 01:51:18;;;;;;;6.53;5.88;;;9.90;99.90;;;10.63;100.00;97889.03;5118631;29;20207;-64
2023/05/13 01:53:52;;;;;;;6.07;5.57;;;9.90;99.90;;;10.59;100.00;97893.97;5110103;28;20205;-64
2023/05/13 01:56:25;;;;;;;5.45;4.95;;;9.90;99.90;;;10.56;100.00;97882.72;5108965;28;20211;-65
2023/05/13 01:58:58;;;;;;;5.45;4.95;;;9.80;99.90;;;10.57;100.00;97890.44;5112097;29;20224;-63
2023/05/13 02:01:31;;;;;;;5.22;4.82;;;9.80;99.90;;;10.60;100.00;97892.28;5117954;28;20232;-64
2023/05/13 02:04:05;;;;;;;5.20;4.65;;;9.80;99.90;;;10.61;100.00;97886.38;5118788;28;20208;-63
2023/05/13 02:06:38;;;;;;;5.18;4.72;;;9.90;99.90;;;10.57;100.00;97897.22;5117341;28;20256;-64
2023/05/13 02:09:12;;;;;;;5.38;4.90;;;9.90;99.90;;;10.56;100.00;97896.34;5111192;28;20238;-64
2023/05/13 02:11:46;;;;;;;5.05;4.65;;;9.90;99.90;;;10.62;100.00;97900.06;5111177;28;20295;-64
2023/05/13 02:14:19;;;;;;;5.15;4.78;;;9.80;99.90;;;10.66;100.00;97902.00;5114538;28;20581;-65
2023/05/13 02:16:52;;;;;;;5.10;4.70;;;10.00;99.90;;;10.49;100.00;97895.91;5114835;28;20732;-64
2023/05/13 02:19:25;;;;;;;4.72;4.43;;;9.90;99.90;;;10.48;100.00;97906.94;5108478;28;20235;-64
2023/05/13 02:21:58;;;;;;;5.57;4.90;;;9.80;99.90;;;10.67;100.00;97907.19;5113272;28;20224;-64
2023/05/13 02:24:34;;;;;;;5.10;4.80;;;9.90;99.90;;;10.72;100.00;97908.31;5114400;28;20205;-65
2023/05/13 02:27:07;;;;;;;4.47;4.22;;;10.00;99.90;;;10.67;100.00;97913.97;5119037;28;20593;-65
2023/05/13 02:29:40;;;;;;;4.75;4.40;;;10.00;99.90;;;10.67;100.00;97907.19;5116508;28;20231;-64
2023/05/13 02:32:13;;;;;;;5.63;4.93;;;10.00;99.90;;;10.68;100.00;97915.75;5114352;29;20220;-64
2023/05/13 02:34:46;;;;;;;5.45;4.95;;;10.00;99.90;;;10.77;100.00;97912.03;5109015;28;20634;-64
2023/05/13 02:37:19;;;;;;;5.07;4.68;;;10.10;99.90;;;10.76;100.00;97912.84;5113139;28;20757;-64
2023/05/13 02:39:53;;;;;;;5.30;4.97;;;10.10;99.90;;;10.74;100.00;97916.09;5110434;28;20231;-65
2023/05/13 02:42:26;;;;;;;5.18;4.78;;;10.00;99.90;;;10.75;100.00;97913.59;5116751;28;20625;-65
2023/05/13 02:44:59;;;;;;;5.60;5.10;;;10.00;99.90;;;10.74;100.00;97905.88;5115972;28;20205;-65
2023/05/13 02:47:32;;;;;;;5.45;4.97;;;10.00;99.90;;;10.71;100.00;97911.69;5112993;29;20232;-64
2023/05/13 02:50:08;;;;;;;5.95;5.45;;;10.00;99.90;;;10.67;100.00;97899.50;5118148;28;20233;-64
2023/05/13 02:52:41;;;;;;;5.72;5.32;;;9.90;99.90;;;10.63;100.00;97907.81;5114660;28;20208;-63
2023/05/13 02:55:16;;;;;;;5.63;5.10;;;9.90;99.90;;;10.64;100.00;97904.44;5108867;28;20254;-65
2023/05/13 02:57:49;;;;;;;5.60;5.20;;;9.90;99.90;;;10.59;100.00;97901.66;5114128;28;20201;-64
2023/05/13 03:00:22;;;;;;;5.18;4.78;;;9.90;99.90;;;10.45;100.00;97897.41;5112568;28;20236;-63
2023/05/13 03:02:56;;;;;;;5.18;4.78;;;9.80;99.90;;;10.42;100.00;97891.25;5112790;28;20205;-64
2023/05/13 03:05:29;;;;;;;4.50;4.20;;;9.80;99.90;;;10.49;100.00;97894.22;5114391;28;20751;-64
2023/05/13 03:08:02;;;;;;;5.78;5.28;;;9.80;99.90;;;10.59;100.00;97896.53;5114876;28;20208;-63
2023/05/13 03:10:37;;;;;;;6.03;5.30;;;9.80;99.90;;;10.64;100.00;97901.00;5119010;28;20236;-64
2023/05/13 03:13:10;;;;;;;5.00;4.60;;;9.90;99.90;;;10.59;100.00;97901.66;5111280;28;20208;-64
2023/05/13 03:15:43;;;;;;;5.20;4.90;;;9.80;99.90;;;10.55;100.00;97898.81;5108765;28;20208;-64
2023/05/13 03:18:16;;;;;;;5.32;4.93;;;9.80;99.90;;;10.60;100.00;97907.63;5114964;28;20224;-65
2023/05/13 03:20:49;;;;;;;5.45;5.07;;;9.90;99.90;;;10.58;100.00;97906.66;5118519;28;20461;-64
2023/05/13 03:23:22;;;;;;;5.20;4.72;;;9.90;99.90;;;10.67;100.00;97912.28;5112277;28;20207;-64
2023/05/13 03:25:56;;;;;;;5.18;4.80;;;9.90;99.90;;;10.49;100.00;97908.69;5110867;28;20232;-64
2023/05/13 03:28:29;;;;;;;5.93;5.43;;;9.80;99.90;;;10.51;100.00;97907.97;5114080;28;20299;-63
2023/05/13 03:31:03;;;;;;;4.75;4.45;;;9.80;99.90;;;10.58;100.00;97919.44;5111033;28;20228;-64
2023/05/13 03:33:36;;;;;;;6.00;5.50;;;9.90;99.90;;;10.71;100.00;97915.91;5116724;28;20673;-64
2023/05/13 03:36:09;;;;;;;5.50;5.00;;;9.90;99.90;;;10.65;100.00;97913.91;5114457;29;20230;-65
2023/05/13 03:38:42;;;;;;;5.85;5.45;;;9.90;99.90;;;10.60;100.00;97907.63;5115317;28;20207;-63
2023/05/13 03:41:16;;;;;;;5.47;5.07;;;9.90;99.90;;;10.62;100.00;97916.28;5115946;28;20244;-64
2023/05/13 03:43:50;;;;;;;5.65;5.25;;;9.90;99.90;;;10.69;100.00;97908.16;5115202;28;20208;-64
2023/05/13 03:46:23;;;;;;;5.20;4.80;;;10.00;99.90;;;10.69;100.00;97908.16;5112973;28;20215;-64
2023/05/13 03:48:56;;;;;;;5.05;4.75;;;10.00;99.90;;;10.67;100.00;97907.19;5112591;28;20209;-65
2023/05/13 03:51:30;;;;;;;5.68;5.32;;;10.00;99.90;;;10.73;100.00;97914.31;5114653;28;20208;-64
2023/05/13 03:54:03;;;;;;;5.30;4.90;;;10.00;99.90;;;10.70;100.00;97909.94;5116046;28;20205;-64
2023/05/13 03:56:37;;;;;;;5.97;5.38;;;10.00;99.90;;;10.68;100.00;97908.97;5108284;28;20215;-64
2023/05/13 03:59:10;;;;;;;6.05;5.55;;;10.00;99.90;;;10.73;100.00;97920.34;5114171;28;20224;-64
2023/05/13 04:01:43;;;;;;;4.82;4.43;;;10.00;99.90;;;10.77;100.00;97916.28;5114224;28;20701;-64
2023/05/13 04:04:16;;;;;;;5.43;4.93;;;10.00;99.90;;;10.82;100.00;97918.28;5115167;28;20200;-65
2023/05/13 04:06:49;;;;;;;6.05;5.55;;;10.00;99.90;;;10.96;99.95;97913.97;5109953;28;20212;-63
2023/05/13 04:09:22;;;;;;;5.82;5.35;;;10.10;99.90;;;10.86;100.00;97915.91;5110656;28;20221;-63
2023/05/13 04:11:56;;;;;;;5.70;5.20;;;10.10;99.90;;;10.82;100.00;97923.41;5104513;28;20370;-64
2023/05/13 04:14:29;;;;;;;5.60;5.20;;;10.10;99.90;;;10.90;100.00;97933.19;5112064;28;20641;-63
2023/05/13 04:17:03;;;;;;;5.75;5.30;;;10.10;99.90;;;10.87;100.00;97922.78;5110460;28;20212;-63
2023/05/13 04:19:36;;;;;;;5.63;5.22;;;10.10;99.90;;;10.87;100.00;97933.00;5109694;28;20225;-64
2023/05/13 04:22:08;;;;;;;5.30;4.95;;;10.10;99.90;;;10.77;100.00;97932.47;5109335;28;20221;-63
2023/05/13 04:24:41;;;;;;;6.75;6.13;;;10.00;99.90;;;10.78;100.00;97931.69;5115249;28;20292;-64
2023/05/13 04:27:16;;;;;;;5.57;5.18;;;10.00;99.90;;;10.70;100.00;97929.47;5116509;28;20204;-64
2023/05/13 04:29:49;;;;;;;5.97;5.53;;;9.90;99.90;;;10.70;100.00;97939.69;5111368;28;20224;-64
2023/05/13 04:32:22;;;;;;;5.30;4.85;;;9.90;99.90;;;10.69;100.00;97938.81;5110870;28;20197;-64
2023/05/13 04:34:55;;;;;;;6.70;5.55;;;9.90;99.90;;;10.71;100.00;97944.91;5113975;28;20222;-64
2023/05/13 04:37:28;;;;;;;5.65;5.15;;;10.00;99.90;;;10.74;100.00;97937.44;5111912;28;20209;-64
2023/05/13 04:40:01;;;;;;;5.90;5.38;;;10.00;99.90;;;10.80;100.00;97939.44;5121213;28;20220;-64
2023/05/13 04:42:35;;;;;;;5.47;5.07;;;10.10;99.90;;;10.92;99.89;97944.38;5109440;29;20254;-63
2023/05/13 04:45:10;;;;;;;5.53;5.13;;;10.10;99.90;;;10.87;99.98;97945.78;5113003;28;20211;-64
2023/05/13 04:47:43;;;;;;;5.78;5.38;;;10.10;99.90;;;10.88;100.00;97945.88;5112200;28;20675;-65
2023/05/13 04:50:16;;;;;;;5.35;4.85;;;10.10;99.90;;;11.03;99.71;97945.88;5113064;28;20688;-65
2023/05/13 04:52:49;;;;;;;5.63;5.22;;;10.20;99.90;;;10.94;100.00;97953.91;5106209;28;20204;-64
2023/05/13 04:55:22;;;;;;;5.65;5.25;;;10.20;99.90;;;10.92;100.00;97949.50;5117127;28;20205;-63
2023/05/13 04:57:59;;;;;;;5.32;5.03;;;10.10;99.90;;;11.11;99.87;97949.75;5108477;28;20209;-65
2023/05/13 05:00:32;;;;;;;5.50;5.10;;;10.30;99.90;;;11.02;100.00;97942.44;5112658;28;20251;-64
2023/05/13 05:03:05;;;;;;;5.43;5.03;;;10.30;99.90;;;11.02;99.36;97954.34;5111579;28;20244;-65
2023/05/13 05:05:38;;;;;;;5.47;5.07;;;10.30;99.90;;;11.05;98.47;97947.72;5111320;28;20255;-64
2023/05/13 05:08:11;;;;;;;5.65;5.15;;;10.30;99.90;;;11.08;100.00;97959.81;5109740;28;20217;-63
2023/05/13 05:10:44;;;;;;;6.00;5.50;;;10.40;99.90;;;11.14;100.00;97964.38;5111216;28;20229;-65
2023/05/13 05:13:19;;;;;;;5.53;5.22;;;10.50;99.90;;;11.21;98.36;97964.78;5111948;28;20213;-64
2023/05/13 05:15:52;;;;;;;6.50;6.00;;;10.50;99.90;;;11.22;98.98;97971.69;5109969;28;20204;-63
2023/05/13 05:18:25;;;;;;;5.47;4.97;;;10.50;99.90;;;11.24;99.46;97970.09;5111060;28;20590;-64
2023/05/13 05:20:58;;;;;;;5.93;5.38;;;10.50;99.90;;;11.28;98.77;97972.03;5106456;28;20225;-64
2023/05/13 05:23:34;;;;;;;5.80;5.40;;;10.50;99.90;;;11.30;99.35;97974.66;5110301;28;20204;-64
2023/05/13 05:26:07;;;;;;;5.35;4.95;;;10.60;99.90;;;11.34;98.09;97975.75;5114381;28;20496;-63
2023/05/13 05:28:46;;;;;;;6.60;6.10;;;10.60;99.90;;;11.33;98.12;97976.53;5110159;28;20319;-63
2023/05/13 05:31:19;;;;;;;6.15;5.45;;;10.60;99.90;;;11.35;98.46;97977.50;5112513;28;21084;-64
2023/05/13 05:33:52;;;;;;;5.70;5.30;;;10.60;99.90;;;11.33;98.08;97976.53;5113419;29;20289;-65
2023/05/13 05:36:25;;;;;;;5.63;5.22;;;10.60;99.90;;;11.38;97.55;97980.22;5116743;28;20212;-64
2023/05/13 05:38:58;;;;;;;5.25;4.90;;;10.60;99.90;;;11.42;98.30;97982.19;5112724;28;20229;-64
2023/05/13 05:41:33;;;;;;;6.03;5.53;;;10.60;99.90;;;11.39;97.67;97990.56;5110656;28;20688;-64
2023/05/13 05:44:07;;;;;;;5.22;4.82;;;10.70;99.90;;;11.41;96.47;97990.63;5125184;28;20287;-65
2023/05/13 05:46:40;;;;;;;5.45;5.05;;;10.70;99.90;;;11.41;96.05;97980.38;5112513;28;20262;-65
2023/05/13 05:49:13;;;;;;;6.68;5.40;;;10.70;99.90;;;11.41;95.25;97988.06;5112140;28;20743;-65
2023/05/13 05:51:46;;;;;;;5.30;4.80;;;10.70;99.90;;;11.55;95.25;97996.53;5114931;28;20204;-64
2023/05/13 05:54:20;;;;;;;5.40;5.00;;;10.80;99.90;;;11.73;93.01;97990.75;5107824;29;20197;-64
2023/05/13 05:56:53;;;;;;;5.45;4.97;;;10.90;99.90;;;11.66;92.85;97988.63;5112687;28;20205;-64
2023/05/13 05:59:27;;;;;;;5.70;5.25;;;11.00;99.90;;;11.76;92.59;97989.13;5113120;28;20794;-64
2023/05/13 06:02:00;;;;;;;7.45;6.75;;;11.00;99.90;;;11.99;91.85;97992.97;5114463;28;20232;-64
2023/05/13 06:04:33;;;;;;;6.10;5.50;;;11.10;99.90;;;12.09;90.15;97992.66;5112630;28;20219;-62
2023/05/13 06:07:07;;;;;;;5.40;4.90;;;11.20;99.90;;;11.96;90.41;97988.59;5115341;28;20585;-64
2023/05/13 06:09:40;;;;;;;5.50;5.10;;;11.20;99.90;;;11.90;90.89;97994.25;5114288;29;20228;-64
2023/05/13 06:12:13;;;;;;;5.70;5.30;;;11.10;99.90;;;11.67;91.00;97995.50;5110301;29;20224;-67
2023/05/13 06:14:47;;;;;;;5.45;5.05;;;11.10;99.90;;;11.72;92.40;97993.22;5108508;28;20215;-67
2023/05/13 06:17:20;;;;;;;5.43;5.13;;;11.10;99.90;;;11.84;93.12;98003.22;5112151;28;20204;-67
2023/05/13 06:19:53;;;;;;;5.28;4.88;;;11.20;99.90;;;11.90;92.72;98001.94;5112139;28;20239;-67
2023/05/13 06:22:26;;;;;;;4.90;4.60;;;11.20;99.90;;;11.98;91.75;98001.44;5110038;28;20250;-67
2023/05/13 06:24:59;;;;;;;5.35;4.95;;;11.20;99.90;;;11.90;91.83;98003.59;5104560;28;20215;-66
2023/05/13 06:27:33;;;;;;;4.95;4.65;;;11.20;99.90;;;11.93;92.23;98004.66;5106825;28;20262;-67
2023/05/13 06:30:09;;;;;;;5.07;4.68;;;11.20;99.90;;;11.90;91.15;97998.47;5103320;28;20220;-67
2023/05/13 06:32:42;;;;;;;5.70;5.20;;;11.20;99.90;;;11.91;91.76;97997.69;5111248;28;20584;-66
2023/05/13 06:35:32;;;;;;;5.28;4.88;;;11.30;99.90;;;12.01;91.61;98007.63;5111183;28;20197;-66
2023/05/13 06:38:05;;;;;;;5.30;4.90;;;11.40;99.90;;;12.03;90.70;98002.59;5109917;29;20209;-67
2023/05/13 06:40:38;;;;;;;5.90;5.40;;;11.30;99.90;;;12.13;90.75;98002.25;5111050;28;20217;-67
2023/05/13 06:43:13;;;;;;;5.22;4.75;;;11.40;99.90;;;12.21;89.76;98007.81;5107835;28;20231;-66
2023/05/13 06:45:47;;;;;;;7.22;5.63;;;11.40;99.90;;;12.13;90.21;97998.03;5110979;28;20204;-67
2023/05/13 06:48:20;;;;;;;5.65;5.03;;;11.40;99.90;;;11.96;90.58;97998.81;5106425;28;20633;-66
2023/05/13 06:50:53;;;;;;;5.60;5.20;;;11.40;99.90;;;12.27;91.32;98001.31;5110672;28;20526;-67
2023/05/13 06:53:26;;;;;;;5.75;5.35;;;11.50;99.90;;;12.42;89.99;97998.69;5109528;29;20213;-67
2023/05/13 06:55:59;;;;;;;6.78;6.18;;;11.60;99.90;;;12.45;90.50;97996.28;5108763;28;20215;-66
2023/05/13 06:58:32;;;;;;;6.28;5.60;;;11.70;99.90;;;12.57;90.07;98001.16;5108860;28;20210;-67
2023/05/13 07:01:06;;;;;;;5.95;5.43;;;11.70;99.90;;;12.67;89.88;98002.50;5113609;28;20723;-67
2023/05/13 07:03:39;;;;;;;5.50;5.10;;;11.80;99.90;;;12.71;90.04;98004.44;5107810;28;20231;-67
2023/05/13 07:06:12;;;;;;;5.47;5.07;;;11.90;99.90;;;12.77;88.89;97999.63;5111981;28;20741;-63
2023/05/13 07:08:45;;;;;;;5.60;5.20;;;12.00;99.90;;;12.74;87.72;97997.78;5103175;28;20220;-65
2023/05/13 07:11:18;;;;;;;5.45;5.05;;;12.00;99.90;;;12.46;87.26;97998.03;5108188;28;20209;-65
2023/05/13 07:13:51;;;;;;;5.57;5.18;;;11.90;99.90;;;12.68;87.45;98002.59;5114546;28;20203;-64
2023/05/13 07:16:26;;;;;;;5.15;4.75;;;12.00;99.90;;;12.82;87.29;98003.28;5107125;28;20205;-65
2023/05/13 07:18:59;;;;;;;5.20;4.70;;;12.10;99.90;;;12.97;87.25;97998.91;5113435;28;20555;-64
2023/05/13 07:21:32;;;;;;;6.10;4.93;;;12.30;99.90;;;12.90;87.82;98006.22;5116286;28;20299;-65
2023/05/13 07:24:05;;;;;;;5.57;5.07;;;12.20;99.90;;;12.99;85.67;98005.03;5118784;28;20208;-65
2023/05/13 07:26:38;;;;;;;4.78;4.38;;;12.30;99.90;;;13.12;85.30;98010.75;5116986;28;20216;-65
2023/05/13 07:29:11;;;;;;;5.13;4.68;;;12.40;99.90;;;13.16;84.20;98010.09;5115561;28;20226;-64
2023/05/13 07:31:46;;;;;;;5.18;4.80;;;12.40;99.90;;;13.19;85.41;98005.09;5114052;28;20255;-64
2023/05/13 07:34:19;;;;;;;5.28;4.88;;;12.40;99.90;;;13.19;84.41;98010.22;5114099;29;20204;-64
2023/05/13 07:36:52;;;;;;;5.15;4.75;;;12.50;99.90;;;13.07;85.29;98002.81;5110307;28;20201;-65
2023/05/13 07:39:25;;;;;;;5.25;4.88;;;12.50;99.90;;;13.33;83.58;98004.13;5113923;28;20229;-65
2023/05/13 07:41:58;;;;;;;4.53;4.22;;;12.60;99.90;;;13.54;83.25;97995.72;5110715;28;20206;-65
2023/05/13 07:44:31;;;;;;;5.28;4.78;;;12.70;99.90;;;13.26;82.86;97991.81;5110934;29;20229;-65
2023/05/13 07:47:06;;;;;;;4.60;4.20;;;12.60;99.90;;;13.33;82.76;98000.69;5105854;28;20563;-65
2023/05/13 07:49:39;;;;;;;5.13;4.82;;;12.70;99.90;;;12.98;83.64;98000.66;5105502;28;20224;-65
2023/05/13 07:52:12;;;;;;;4.63;4.32;;;12.50;99.90;;;12.95;83.60;98005.66;5109870;28;20220;-64
2023/05/13 07:54:45;;;;;;;5.18;4.68;;;12.40;99.90;;;12.83;86.06;97994.78;5109152;28;20578;-64
2023/05/13 07:57:18;;;;;;;4.80;4.40;;;12.30;99.90;;;13.20;86.08;97999.19;5108674;28;20197;-64
2023/05/13 07:59:53;;;;;;;5.10;4.63;;;12.50;99.90;;;13.42;86.02;97996.88;5110530;28;20821;-65
2023/05/13 08:02:33;;;;;;;4.85;4.45;;;12.70;99.90;;;13.59;84.66;98004.50;5114306;28;20283;-63
2023/05/13 08:05:07;;;;;;;4.75;4.45;;;12.80;99.90;;;13.77;83.30;98005.38;5112803;28;20307;-64
2023/05/13 08:07:40;;;;;;;4.85;4.55;;;12.90;99.90;;;13.66;82.68;98004.88;5113231;28;20691;-65
2023/05/13 08:10:13;;;;;;;4.28;4.07;;;12.90;99.90;;;13.77;83.45;98007.94;5108437;28;20233;-65
2023/05/13 08:12:51;;;;;;;4.78;4.38;;;13.00;99.90;;;13.84;83.29;97999.69;5123383;28;20211;-64
2023/05/13 08:15:24;;;;;;;4.82;4.50;;;13.00;99.90;;;13.74;83.18;98011.25;5112820;28;20216;-65
2023/05/13 08:17:58;;;;;;;5.70;4.35;;;13.00;99.90;;;13.23;83.38;98007.03;5113601;28;20266;-64
2023/05/13 08:20:31;;;;;;;4.70;4.30;;;12.80;99.90;;;13.53;83.46;98007.66;5109135;28;20367;-64
2023/05/13 08:23:05;;;;;;;4.45;4.15;;;12.90;99.90;;;13.58;83.83;98000.16;5113986;28;20652;-64
2023/05/13 08:25:38;;;;;;;4.75;4.45;;;12.90;99.90;;;13.68;83.33;98012.66;5108306;28;20215;-64
2023/05/13 08:28:11;;;;;;;4.95;4.45;;;13.00;99.90;;;13.57;82.82;98009.56;5109574;28;20201;-64
2023/05/13 08:30:44;;;;;;;4.53;4.20;;;12.90;99.90;;;13.73;81.81;98016.28;5111973;29;20239;-64
2023/05/13 08:33:18;;;;;;;4.25;3.95;;;12.90;99.90;;;13.68;81.94;98017.78;5113210;28;20205;-65
2023/05/13 08:35:51;;;;;;;4.55;4.20;;;13.00;99.90;;;13.73;82.63;98016.28;5122082;28;20232;-65
2023/05/13 08:38:24;;;;;;;4.57;4.28;;;13.00;99.90;;;13.32;83.20;98012.63;5114029;28;20213;-64
2023/05/13 08:40:57;;;;;;;4.80;4.28;;;12.80;99.90;;;13.49;83.63;98013.47;5113831;28;20220;-65
2023/05/13 08:43:32;;;;;;;4.63;4.32;;;12.80;99.90;;;13.39;84.31;98008.66;5114749;28;20228;-64
2023/05/13 08:46:09;;;;;;;4.47;4.05;;;12.80;99.90;;;13.38;84.07;98019.75;5110342;28;20654;-65
2023/05/13 08:48:44;;;;;;;4.65;4.35;;;12.80;99.90;;;13.06;85.36;98022.47;5114894;28;20229;-63
2023/05/13 08:51:17;;;;;;;4.25;3.90;;;12.70;99.90;;;13.06;86.64;98024.16;5111519;29;20760;-64
2023/05/13 08:53:52;;;;;;;4.57;4.28;;;12.60;99.90;;;13.19;85.36;98026.53;5109863;28;20202;-65
2023/05/13 08:56:28;;;;;;;4.72;4.43;;;12.70;99.90;;;13.20;84.47;98024.84;5107665;28;20573;-65
2023/05/13 08:59:01;;;;;;;4.82;4.43;;;12.80;99.90;;;13.39;84.92;98021.50;5107313;28;20232;-65
2023/05/13 09:01:34;;;;;;;4.82;4.53;;;12.80;99.90;;;13.74;84.41;98013.81;5116715;28;20209;-64
2023/05/13 09:04:10;;;;;;;4.72;4.32;;;13.20;99.90;;;13.67;82.73;98018.59;5110277;28;20232;-63
2023/05/13 09:06:43;;;;;;;4.38;4.07;;;13.10;99.90;;;13.88;82.69;98026.44;5107857;28;20205;-62
2023/05/13 09:09:16;;;;;;;4.07;3.78;;;13.20;99.90;;;13.88;81.37;98027.31;5107724;28;20602;-64
2023/05/13 09:11:49;;;;;;;4.05;3.80;;;13.20;99.90;;;14.04;81.81;98028.00;5112520;28;20209;-65
2023/05/13 09:14:27;;;;;;;4.30;4.00;;;13.30;99.90;;;13.96;81.94;98030.22;5108617;28;20201;-64
2023/05/13 09:17:02;;;;;;;4.45;4.13;;;13.30;99.90;;;14.22;81.65;98033.97;5111045;28;20575;-62
2023/05/13 09:19:36;;;;;;;3.83;3.63;;;13.50;99.90;;;14.48;80.44;98032.59;5117176;28;20239;-64
2023/05/13 09:22:17;;;;;;;3.80;3.42;;;13.60;99.90;;;14.41;79.55;98030.56;5113422;29;20204;-64
2023/05/13 09:24:54;;;;;;;3.90;3.60;;;13.70;99.90;;;14.36;78.41;98034.59;5120565;28;20252;-64
2023/05/13 09:27:37;;;;;;;7.15;4.55;;;13.70;99.90;;;14.18;80.34;98037.25;5119045;28;20208;-65
2023/05/13 09:30:11;;;;;;;5.07;4.68;;;13.50;99.90;;;14.04;80.60;98035.72;5111544;28;20225;-66
2023/05/13 09:32:44;;;;;;;4.68;4.40;;;13.50;99.90;;;14.08;80.60;98035.94;5108499;28;20295;-64
2023/05/13 09:35:18;;;;;;;4.47;4.07;;;13.40;99.90;;;14.08;80.75;98032.47;5110808;28;20204;-63
2023/05/13 09:37:52;;;;;;;4.00;3.80;;;13.40;99.90;;;14.37;80.36;98032.13;5112777;28;20208;-65
2023/05/13 09:40:25;;;;;;;4.63;4.22;;;13.60;99.90;;;14.52;79.95;98033.66;5114444;28;20617;-64
2023/05/13 09:42:58;;;;;;;4.13;3.83;;;13.80;99.90;;;14.75;78.75;98035.53;5109129;28;20209;-64
2023/05/13 09:45:32;;;;;;;4.95;4.47;;;14.00;99.90;;;15.09;76.20;98035.28;5109248;28;20248;-62
2023/05/13 09:48:06;;;;;;;4.20;3.90;;;14.30;99.90;;;14.95;76.53;98036.38;5108564;28;20211;-62
2023/05/13 09:50:49;;;;;;;4.22;3.83;;;14.30;99.90;;;15.36;74.90;98033.78;5108074;28;20713;-65
2023/05/13 09:53:22;;;;;;;4.72;4.43;;;14.50;99.90;;;15.09;74.17;98029.25;5110530;29;20212;-62
2023/05/13 09:55:58;;;;;;;4.07;3.88;;;14.50;99.90;;;14.77;75.17;98045.91;5113408;28;20220;-64
2023/05/13 09:58:31;;;;;;;4.00;3.70;;;14.30;99.90;;;14.73;74.99;98044.88;5111567;28;20575;-65
2023/05/13 10:01:05;;;;;;;3.90;3.70;;;14.10;99.90;;;14.64;76.04;98047.91;5114523;28;20618;-64
2023/05/13 10:03:38;;;;;;;4.20;3.90;;;14.00;99.90;;;14.78;74.74;98043.38;5108340;28;20632;-64
2023/05/13 10:06:13;;;;;;;4.07;3.78;;;14.10;99.90;;;14.59;75.55;98046.88;5108663;28;20271;-63
2023/05/13 10:08:49;;;;;;;4.20;3.90;;;14.10;99.90;;;14.62;75.50;98051.22;5110192;28;20815;-64
2023/05/13 10:11:25;;;;;;;4.28;3.97;;;14.00;99.90;;;14.75;76.16;98048.41;5110531;28;20216;-65
2023/05/13 10:14:01;;;;;;;4.20;3.85;;;14.10;99.90;;;14.31;76.45;98054.13;5111990;28;20288;-63
2023/05/13 10:16:34;;;;;;;3.90;3.60;;;13.90;99.90;;;14.28;76.62;98060.00;5109721;28;20205;-65
2023/05/13 10:19:08;;;;;;;4.38;4.07;;;13.80;99.90;;;14.02;77.76;98055.31;5109034;28;20251;-63
2023/05/13 10:21:42;;;;;;;4.15;3.90;;;13.70;99.90;;;14.11;76.77;98056.66;5116717;28;20295;-65
2023/05/13 10:24:16;;;;;;;6.30;4.07;;;13.70;99.90;;;14.34;77.96;98055.13;5108910;28;20233;-63
2023/05/13 10:26:52;;;;;;;3.50;3.30;;;13.70;99.90;;;14.40;77.40;98047.69;5111106;28;20204;-64
2023/05/13 10:29:26;;;;;;;4.07;3.78;;;13.80;99.90;;;14.55;76.02;98050.09;5110629;28;20285;-65
2023/05/13 10:32:00;;;;;;;5.13;4.72;;;13.90;99.90;;;14.25;77.44;98054.72;5111555;28;20206;-64
2023/05/13 10:34:35;;;;;;;4.60;4.20;;;13.70;99.90;;;14.26;77.49;98041.03;5108831;28;20201;-63
2023/05/13 10:38:04;;;;;;;4.95;4.50;;;13.60;99.90;;;14.23;80.15;98050.31;5113427;28;20672;-62
2023/05/13 10:41:10;;;;;;;4.95;4.55;;;13.50;99.90;;;14.34;79.92;98050.00;5124000;28;20224;-65
2023/05/13 10:43:43;;;;;;;4.10;3.80;;;13.60;99.90;;;14.55;78.51;98054.38;5107168;28;20205;-64
2023/05/13 10:46:19;;;;;;;4.32;4.00;;;13.70;99.90;;;14.36;77.84;98053.47;5111433;29;20224;-65